Metar Report
Metar
METAR KPHG 232256Z AUTO 28007KT 10SM CLR 04/M02 A3025 A02 7314
METAR KPHG 232156Z AUTO 29011KT 10SM CLR 04/M02 A3024 A02 7313
METAR KPHG 232056Z AUTO 29011KT 10SM CLR 04/M02 A3023 A02 7312
METAR KPHG 231956Z AUTO 28010KT 10SM CLR 03/M03 A3022 A02 7311
METAR KPHG 231856Z AUTO 29008KT 10SM CLR 03/M04 A3023 A02 7310
METAR KPHG 231756Z AUTO 28009KT 10SM CLR 02/M04 A3024 A02 7309
METAR KPHG 231656Z AUTO 28012KT 10SM CLR 00/M06 A3024 A02 7308
METAR KPHG 231556Z AUTO 29011KT 10SM CLR M02/M08 A3021 A02 7307
METAR KPHG 231456Z AUTO 27009KT 10SM CLR M05/M09 A3019 A02 7306
METAR KPHG 231356Z AUTO 30010KT 10SM CLR M07/M11 A3017 A02 7305
METAR KPHG 231256Z AUTO 26006KT 10SM CLR M07/M11 A3015 A02 7304
METAR KPHG 231156Z AUTO 29008KT 10SM CLR M06/M10 A3013 A02 7303
METAR KPHG 231056Z AUTO 29010KT 10SM CLR M06/M09 A3012 A02 7302
METAR KPHG 230956Z AUTO 29009KT 10SM CLR M06/M09 A3011 A02 7301
METAR KPHG 230856Z AUTO 29012KT 10SM CLR M04/M09 A3010 A02 7300
METAR KPHG 230756Z AUTO 29009KT 10SM CLR M04/M09 A3010 A02 7299
METAR KPHG 230656Z AUTO 29010KT 10SM CLR M03/M08 A3008 A02 7298
METAR KPHG 230556Z AUTO 30009KT 10SM CLR M03/M08 A3006 A02 7297
METAR KPHG 230456Z AUTO 30011KT 10SM CLR M03/M07 A3005 A02 7296
METAR KPHG 230356Z AUTO 30011KT 10SM CLR M02/M07 A3002 A02 7295
METAR KPHG 230256Z AUTO 30010KT 10SM CLR M01/M06 A3001 A02 7294
METAR KPHG 230156Z AUTO 30012G16KT 10SM CLR 00/M06 A2998 A02 7293
METAR KPHG 230056Z AUTO 29015G19KT 10SM CLR 00/M05 A2997 A02 7292
METAR KPHG 222356Z AUTO 30013G16KT 10SM CLR 01/M04 A2994 A02 7291
METAR KPHG 222256Z AUTO 30016G23KT 10SM CLR 02/M04 A2990 A02 7290
METAR KPHG 222156Z AUTO 31020G27KT 10SM CLR 02/M03 A2986 A02 7289
METAR KPHG 222056Z AUTO 30015G28KT 10SM CLR 02/M03 A2982 A02 7288
METAR KPHG 221956Z AUTO 30021G27KT 10SM CLR 02/M03 A2980 A02 7287
METAR KPHG 221856Z AUTO 31018G27KT 10SM CLR 01/M03 A2980 A02 7286
METAR KPHG 221756Z AUTO 30024G31KT 10SM CLR 01/M04 A2978 A02 7285
METAR KPHG 221656Z AUTO 31022G30KT 1 1/4SM -SN BKN013 OVC022 00/M01 A2979 A02 7284
METAR KPHG 221556Z AUTO 31025G30KT 3/4SM -SN OVC008 00/00 A2975 A02 7283
METAR KPHG 221456Z AUTO 31027G35KT 1 1/2SM -SN OVC008 00/00 A2972 A02 7282
METAR KPHG 221356Z AUTO 32023G29KT 2SM -SN OVC014 00/00 A2967 A02 7281
METAR KPHG 221333Z AUTO 31022KT MM MM MM/MM A2966 A02 7280
METAR KPHG 220856Z AUTO 34015G22KT 1 3/4SM -SN OVC008 01/01 A2954 A02 7279
METAR KPHG 220756Z AUTO 35019G23KT 3SM -SN BKN007 OVC015 01/01 A2953 A02 7278
METAR KPHG 220656Z AUTO 34013G17KT 4SM -RA OVC004 01/01 A2954 A02 P0002 7277
METAR KPHG 220556Z AUTO 33008KT 1SM -RA OVC002 01/01 A2956 A02 7276
METAR KPHG 220456Z AUTO 01010KT 3/4SM BR OVC002 02/02 A2956 A02 7275
METAR KPHG 220356Z AUTO 02007KT 2 1/2SM BR OVC004 02/02 A2958 A02 7274
METAR KPHG 220256Z AUTO 36008KT 7SM OVC004 02/02 A2959 A02 7273
METAR KPHG 220156Z AUTO 00000KT 5SM BR OVC006 02/02 A2963 A02 7272
METAR KPHG 220056Z AUTO 02009G14KT 10SM OVC006 02/02 A2964 A02 7271
METAR KPHG 212356Z AUTO 01009G14KT 3SM BR BKN006 OVC009 02/02 A2967 A02 7270
METAR KPHG 212256Z AUTO 36008G16KT 2 1/2SM -RA OVC004 02/02 A2967 A02 7269
METAR KPHG 212156Z AUTO 01014G18KT 2 1/2SM BR OVC004 02/02 A2964 A02 7268
METAR KPHG 212056Z AUTO 02010KT 3SM BR OVC002 03/03 A2964 A02 7267
METAR KPHG 211956Z AUTO 02012KT 1 1/2SM BR OVC004 03/03 A2962 A02 7266
METAR KPHG 211856Z AUTO 02013G16KT 2SM BR OVC004 03/03 A2965 A02 7265
METAR KPHG 211756Z AUTO 03009KT 5SM BR OVC004 03/03 A2972 A02 7264
METAR KPHG 211656Z AUTO 02013G17KT 2 1/2SM BR OVC004 03/03 A2972 A02 7263
METAR KPHG 211556Z AUTO 01012KT 4SM BR OVC004 03/03 A2975 A02 7262
METAR KPHG 211456Z AUTO 35009KT 4SM BR OVC004 02/02 A2974 A02 7261
METAR KPHG 211356Z AUTO 02004KT 5SM BR OVC004 03/03 A2974 A02 7260
METAR KPHG 211256Z AUTO 35009KT 4SM BR OVC004 03/03 A2972 A02 7259
METAR KPHG 211156Z AUTO 35012G15KT 3SM BR OVC004 03/03 A2972 A02 7258
METAR KPHG 211056Z AUTO 34009KT 4SM BR OVC008 03/03 A2975 A02 7257
METAR KPHG 210956Z AUTO 01009KT 7SM OVC006 03/03 A2974 A02 7256
METAR KPHG 210856Z AUTO 00000KT 7SM OVC006 03/03 A2974 A02 7255
METAR KPHG 210756Z AUTO 36008KT 4SM BR OVC004 03/03 A2975 A02 7254
METAR KPHG 210656Z AUTO 01011KT 3/4SM BR OVC002 03/03 A2974 A02 7253
METAR KPHG 210556Z AUTO 01009KT 3SM BR BKN002 02/02 A2977 A02 7252
METAR KPHG 210456Z AUTO 36005KT 10SM CLR 02/02 A2978 A02 7251
METAR KPHG 210356Z AUTO 36009KT 10SM CLR 02/02 A2978 A02 7250
METAR KPHG 210256Z AUTO 02006KT 10SM CLR 02/00 A2980 A02 7249
METAR KPHG 210156Z AUTO 01006KT 10SM CLR 03/M01 A2980 A02 7248
METAR KPHG 210056Z AUTO 02006KT 10SM CLR 04/M01 A2980 A02 7247
METAR KPHG 202356Z AUTO 36004KT 10SM CLR 05/M02 A2979 A02 7246
METAR KPHG 202256Z AUTO 04004KT 10SM CLR 09/M01 A2976 A02 7245
METAR KPHG 202156Z AUTO 08008KT 10SM CLR 11/M01 A2974 A02 7244
METAR KPHG 202056Z AUTO 07008KT 10SM CLR 11/M02 A2974 A02 7243
METAR KPHG 201956Z AUTO 06007KT 10SM CLR 10/M03 A2974 A02 7242
METAR KPHG 201856Z AUTO 05007KT 10SM CLR 09/M03 A2975 A02 7241
METAR KPHG 201756Z AUTO 03008KT 10SM CLR 07/M03 A2979 A02 7240
METAR KPHG 201656Z AUTO 01005KT 10SM CLR 04/M03 A2981 A02 7239
METAR KPHG 201556Z AUTO 04004KT 10SM CLR 03/M03 A2980 A02 7238
METAR KPHG 201456Z AUTO 36007KT 10SM CLR M01/M03 A2978 A02 7237
METAR KPHG 201356Z AUTO 35008KT 10SM CLR M03/M04 A2976 A02 7236
METAR KPHG 201256Z AUTO 00000KT 10SM CLR M03/M05 A2976 A02 7235
METAR KPHG 201156Z AUTO 02005KT 10SM CLR M01/M04 A2974 A02 7234
METAR KPHG 201056Z AUTO 02006KT 10SM CLR 00/M04 A2973 A02 7233
METAR KPHG 200956Z AUTO 01008KT 10SM CLR M01/M05 A2974 A02 7232
METAR KPHG 200856Z AUTO 02005KT 10SM CLR M01/M06 A2973 A02 7231
METAR KPHG 200756Z AUTO 03004KT 10SM CLR M01/M07 A2972 A02 7230
METAR KPHG 200656Z AUTO 00000KT 10SM CLR M02/M08 A2972 A02 7229
METAR KPHG 200556Z AUTO 00000KT 10SM CLR 00/M07 A2972 A02 7228
METAR KPHG 200456Z AUTO 35003KT 10SM CLR 01/M07 A2972 A02 7227
METAR KPHG 200356Z AUTO 04005KT 10SM CLR 03/M07 A2971 A02 7226
METAR KPHG 200256Z AUTO 04004KT 10SM CLR 04/M07 A2970 A02 7225
METAR KPHG 200156Z AUTO 00000KT 10SM CLR 04/M08 A2970 A02 7224
METAR KPHG 200056Z AUTO 03006KT 10SM CLR 07/M07 A2970 A02 7223
METAR KPHG 192356Z AUTO 02006KT 10SM CLR 08/M07 A2968 A02 7222
METAR KPHG 192256Z AUTO 14004KT 10SM CLR 14/M07 A2965 A02 7221
METAR KPHG 192156Z AUTO 13006KT 10SM CLR 17/M07 A2964 A02 7220
METAR KPHG 192056Z AUTO 14005KT 10SM CLR 15/M07 A2964 A02 7219
METAR KPHG 191956Z AUTO 13005KT 10SM CLR 13/M07 A2966 A02 7218
METAR KPHG 191856Z AUTO 15004KT 10SM CLR 11/M07 A2969 A02 7217
METAR KPHG 191756Z AUTO 14003KT 10SM CLR 08/M07 A2974 A02 7216
METAR KPHG 191656Z AUTO 00000KT 10SM CLR 04/M07 A2977 A02 7215
METAR KPHG 191556Z AUTO 00000KT 10SM CLR 01/M07 A2978 A02 7214
METAR KPHG 191456Z AUTO 00000KT 10SM CLR M03/M07 A2979 A02 7213
METAR KPHG 191356Z AUTO 00000KT 10SM CLR M05/M09 A2979 A02 7212
METAR KPHG 191256Z AUTO 00000KT 10SM CLR M05/M09 A2979 A02 7211
METAR KPHG 191156Z AUTO 00000KT 10SM CLR M02/M09 A2980 A02 7210
METAR KPHG 191056Z AUTO 00000KT 10SM CLR 00/M10 A2980 A02 7209
METAR KPHG 190956Z AUTO 00000KT 10SM CLR M01/M10 A2982 A02 7208
METAR KPHG 190856Z AUTO 00000KT 10SM CLR 01/M09 A2984 A02 7207
METAR KPHG 190756Z AUTO 15003KT 10SM CLR 02/M10 A2986 A02 7206
METAR KPHG 190656Z AUTO 23004KT 10SM CLR 04/M10 A2987 A02 7205
METAR KPHG 190556Z AUTO 26006KT 10SM CLR 05/M10 A2989 A02 7204
METAR KPHG 190456Z AUTO 00000KT 10SM CLR 05/M10 A2990 A02 7203
METAR KPHG 190356Z AUTO 00000KT 10SM CLR 05/M09 A2991 A02 7202
METAR KPHG 190256Z AUTO 00000KT 10SM CLR 06/M08 A2991 A02 7201
METAR KPHG 190156Z AUTO 00000KT 10SM CLR 07/M07 A2992 A02 7200
METAR KPHG 190056Z AUTO 00000KT 10SM CLR 06/M07 A2994 A02 7199
METAR KPHG 182356Z AUTO 10003KT 10SM CLR 08/M07 A2994 A02 7198
METAR KPHG 182256Z AUTO 00000KT 10SM CLR 12/M06 A2994 A02 7197
METAR KPHG 182156Z AUTO 18004KT 10SM CLR 16/M07 A2994 A02 7196
METAR KPHG 182056Z AUTO 19004KT 10SM CLR 15/M06 A2996 A02 7195
METAR KPHG 181956Z AUTO 20003KT 10SM CLR 13/M04 A2998 A02 7194